Time;durP1;ratioP1;P1;durP2;ratioP2;P2;SDS_P1;SDS_P2;PMS_P1;PMS_P2;Temp;Humidity;BMP_temperature;BMP_pressure;BME280_temperature;BME280_humidity;BME280_pressure;Samples;Min_cycle;Max_cycle;Signal;HPM_P1;HPM_P2
2023/10/15 00:01:12;;;;;;;5.10;1.00;;;;;;;-147.98;100.00;69253.78;5004602;28;20418;-88
2023/10/15 00:03:46;;;;;;;7.55;1.30;;;;;;;-147.98;100.00;69253.78;4991966;28;20437;-88
2023/10/15 00:06:15;;;;;;;6.78;0.90;;;;;;;-147.98;100.00;69253.78;4993026;28;20907;-89
2023/10/15 00:08:43;;;;;;;5.85;0.80;;;;;;;-147.98;100.00;69253.78;5004108;28;20425;-87
2023/10/15 00:11:17;;;;;;;3.83;0.95;;;;;;;-147.98;100.00;69253.78;5002340;28;20425;-88
2023/10/15 00:13:47;;;;;;;4.03;0.90;;;;;;;-147.98;100.00;69253.78;4974543;28;20422;-90
2023/10/15 00:16:18;;;;;;;3.15;0.80;;;;;;;-147.98;100.00;69253.78;5008277;28;20435;-86
2023/10/15 00:18:47;;;;;;;4.78;1.00;;;;;;;-147.98;100.00;69253.78;4989801;28;20431;-88
2023/10/15 00:21:15;;;;;;;4.25;1.17;;;;;;;-147.98;100.00;69253.78;4993742;28;20417;-86
2023/10/15 00:23:46;;;;;;;4.68;0.90;;;;;;;-147.98;100.00;69253.78;4977984;28;20419;-86
2023/10/15 00:26:16;;;;;;;4.10;0.73;;;;;;;-147.98;100.00;69253.78;5006378;28;20425;-89
2023/10/15 00:28:55;;;;;;;3.25;0.98;;;;;;;-147.98;100.00;69253.78;5005263;28;20424;-87
2023/10/15 00:31:23;;;;;;;1.63;0.60;;;;;;;-147.98;100.00;69253.78;4998767;28;20405;-88
2023/10/15 00:33:52;;;;;;;3.90;1.10;;;;;;;-147.98;100.00;69253.78;4992404;28;20428;-89
2023/10/15 00:36:23;;;;;;;1.35;0.60;;;;;;;-147.98;100.00;69253.78;4991870;28;20413;-89
2023/10/15 00:38:51;;;;;;;2.42;0.63;;;;;;;-147.98;100.00;69253.78;4999507;28;20416;-89
2023/10/15 00:41:20;;;;;;;3.63;0.60;;;;;;;-147.98;100.00;69253.78;5000528;28;20405;-89
2023/10/15 00:43:52;;;;;;;1.35;0.60;;;;;;;-147.98;100.00;69253.78;5000442;28;20419;-88
2023/10/15 00:46:24;;;;;;;1.65;0.50;;;;;;;-147.98;100.00;69253.78;4994861;28;20434;-85
2023/10/15 00:48:56;;;;;;;2.67;0.70;;;;;;;-147.98;100.00;69253.78;4991181;28;20788;-87
2023/10/15 00:51:25;;;;;;;1.88;0.55;;;;;;;-147.98;100.00;69253.78;4988403;28;20415;-89
2023/10/15 00:53:58;;;;;;;2.72;0.68;;;;;;;-147.98;100.00;69253.78;5009835;28;20420;-88
2023/10/15 00:56:33;;;;;;;3.13;0.70;;;;;;;-147.98;100.00;69253.78;5000040;28;21440;-89
2023/10/15 00:59:17;;;;;;;3.42;0.70;;;;;;;-147.98;100.00;69253.78;5002271;28;20428;-86
2023/10/15 01:02:03;;;;;;;2.22;0.65;;;;;;;-147.98;100.00;69253.78;5004166;28;20437;-87
2023/10/15 01:04:35;;;;;;;1.83;0.65;;;;;;;-147.98;100.00;69253.78;5004240;28;20435;-88
2023/10/15 01:07:14;;;;;;;4.00;0.82;;;;;;;-147.98;100.00;69253.78;4992737;28;20437;-89
2023/10/15 01:09:43;;;;;;;5.00;0.80;;;;;;;-147.98;100.00;69253.78;5008378;28;20498;-89
2023/10/15 01:12:24;;;;;;;5.53;0.93;;;;;;;-147.98;100.00;69253.78;5007122;28;20427;-90
2023/10/15 01:14:53;;;;;;;3.75;0.70;;;;;;;-147.98;100.00;69253.78;5015256;28;20413;-87
2023/10/15 01:17:24;;;;;;;4.00;0.82;;;;;;;-147.98;100.00;69253.78;4989558;28;20432;-89
2023/10/15 01:19:53;;;;;;;3.38;0.88;;;;;;;-147.98;100.00;69253.78;5000533;28;20427;-88
2023/10/15 01:22:23;;;;;;;3.85;1.05;;;;;;;-147.98;100.00;69253.78;5000165;28;20901;-86
2023/10/15 01:24:54;;;;;;;3.22;0.90;;;;;;;-147.98;100.00;69253.78;4998425;28;20421;-89
2023/10/15 01:27:27;;;;;;;3.80;0.82;;;;;;;-147.98;100.00;69253.78;4991018;28;20442;-83
2023/10/15 01:29:58;;;;;;;8.18;1.13;;;;;;;-147.98;100.00;69253.78;4997781;28;20437;-85
2023/10/15 01:32:32;;;;;;;3.95;0.88;;;;;;;-147.98;100.00;69253.78;4988222;28;20421;-87
2023/10/15 01:35:01;;;;;;;5.38;0.90;;;;;;;-147.98;100.00;69253.78;4991780;28;20424;-88
2023/10/15 01:37:30;;;;;;;2.90;0.90;;;;;;;-147.98;100.00;69253.78;4994098;28;20432;-88
2023/10/15 01:40:24;;;;;;;3.77;0.97;;;;;;;-147.98;100.00;69253.78;5002891;28;20426;-87
2023/10/15 01:42:54;;;;;;;2.77;0.70;;;;;;;-147.98;100.00;69253.78;4997002;28;20404;-87
2023/10/15 01:45:32;;;;;;;2.60;1.00;;;;;;;-147.98;100.00;69253.78;4999107;28;21062;-87
2023/10/15 01:48:13;;;;;;;4.60;0.93;;;;;;;-147.98;100.00;69253.78;4995505;28;20437;-88
2023/10/15 01:50:44;;;;;;;6.30;0.88;;;;;;;-147.98;100.00;69253.78;5007900;28;20420;-86
2023/10/15 01:53:13;;;;;;;5.30;0.85;;;;;;;-147.98;100.00;69253.78;5006250;28;21106;-87
2023/10/15 01:55:53;;;;;;;3.67;0.70;;;;;;;-147.98;100.00;69253.78;4999934;28;20433;-88
2023/10/15 01:58:30;;;;;;;3.17;0.75;;;;;;;-147.98;100.00;69253.78;5004608;28;20432;-86
2023/10/15 02:01:09;;;;;;;6.13;0.90;;;;;;;-147.98;100.00;69253.78;5002303;28;20421;-88
2023/10/15 02:03:38;;;;;;;3.47;0.80;;;;;;;-147.98;100.00;69253.78;5012133;28;20427;-87
2023/10/15 02:06:07;;;;;;;6.50;0.90;;;;;;;-147.98;100.00;69253.78;5006285;28;20417;-88
2023/10/15 02:08:39;;;;;;;2.80;0.90;;;;;;;-147.98;100.00;69253.78;5008120;28;20423;-86
2023/10/15 02:11:15;;;;;;;2.72;0.55;;;;;;;-147.98;100.00;69253.78;4994368;28;20423;-88
2023/10/15 02:13:45;;;;;;;3.47;0.80;;;;;;;-147.98;100.00;69253.78;4985374;28;20425;-88
2023/10/15 02:16:18;;;;;;;3.60;0.55;;;;;;;-147.98;100.00;69253.78;5000008;28;20421;-90
2023/10/15 02:18:47;;;;;;;2.37;0.80;;;;;;;-147.98;100.00;69253.78;5001189;28;20429;-88
2023/10/15 02:21:17;;;;;;;2.45;0.82;;;;;;;-147.98;100.00;69253.78;4986339;28;20427;-89
2023/10/15 02:23:50;;;;;;;2.80;0.80;;;;;;;-147.98;100.00;69253.78;5009586;28;20516;-87
2023/10/15 02:26:23;;;;;;;4.00;0.70;;;;;;;-147.98;100.00;69253.78;4986868;28;20895;-88
2023/10/15 02:28:54;;;;;;;1.92;0.73;;;;;;;-147.98;100.00;69253.78;5002549;28;20414;-89
2023/10/15 02:31:23;;;;;;;3.90;0.90;;;;;;;-147.98;100.00;69253.78;5010020;28;20492;-88
2023/10/15 02:33:55;;;;;;;4.60;1.00;;;;;;;-147.98;100.00;69253.78;4988311;28;20463;-91
2023/10/15 02:36:25;;;;;;;3.60;1.08;;;;;;;-147.98;100.00;69253.78;4988758;28;20425;-90
2023/10/15 02:38:53;;;;;;;3.65;0.80;;;;;;;-147.98;100.00;69253.78;5007671;28;20963;-87
2023/10/15 02:41:26;;;;;;;4.55;1.05;;;;;;;-147.98;100.00;69253.78;5004780;28;20411;-89
2023/10/15 02:43:55;;;;;;;5.72;0.90;;;;;;;-147.98;100.00;69253.78;4986474;28;20899;-87
2023/10/15 02:46:36;;;;;;;3.53;0.73;;;;;;;-147.98;100.00;69253.78;4993219;28;20436;-87
2023/10/15 02:49:07;;;;;;;4.38;0.90;;;;;;;-147.98;100.00;69253.78;5005446;28;20420;-89
2023/10/15 02:51:36;;;;;;;3.13;0.95;;;;;;;-147.98;100.00;69253.78;5008239;28;20424;-88
2023/10/15 02:54:18;;;;;;;3.33;1.00;;;;;;;-147.98;100.00;69253.78;5007389;28;20424;-87
2023/10/15 02:56:48;;;;;;;4.27;1.00;;;;;;;-147.98;100.00;69253.78;4988792;28;20429;-90
2023/10/15 02:59:17;;;;;;;6.03;1.17;;;;;;;-147.98;100.00;69253.78;4992969;28;20419;-88
2023/10/15 03:01:46;;;;;;;4.63;1.23;;;;;;;-147.98;100.00;69253.78;4984490;28;20412;-90
2023/10/15 03:04:18;;;;;;;11.85;1.80;;;;;;;-147.98;100.00;69253.78;5001587;28;20431;-88
2023/10/15 03:06:51;;;;;;;4.50;1.50;;;;;;;-147.98;100.00;69253.78;5009215;28;20432;-90
2023/10/15 03:09:20;;;;;;;3.95;1.30;;;;;;;-147.98;100.00;69253.78;4997769;28;20414;-88
2023/10/15 03:11:51;;;;;;;5.85;1.25;;;;;;;-147.98;100.00;69253.78;4990597;28;20940;-90
2023/10/15 03:14:21;;;;;;;5.85;1.13;;;;;;;-147.98;100.00;69253.78;4985909;28;20420;-87
2023/10/15 03:16:50;;;;;;;7.80;1.10;;;;;;;-147.98;100.00;69253.78;4995222;28;20427;-86
2023/10/15 03:19:24;;;;;;;4.40;1.17;;;;;;;-147.98;100.00;69253.78;5003450;28;20427;-89
2023/10/15 03:21:57;;;;;;;3.28;0.80;;;;;;;-147.98;100.00;69253.78;4995376;28;20429;-89
2023/10/15 03:24:27;;;;;;;3.67;0.90;;;;;;;-147.98;100.00;69253.78;4988795;28;20432;-88
2023/10/15 03:26:58;;;;;;;3.92;0.90;;;;;;;-147.98;100.00;69253.78;4981271;28;20423;-90
2023/10/15 03:29:27;;;;;;;2.92;0.70;;;;;;;-147.98;100.00;69253.78;5006826;28;20426;-89
2023/10/15 03:32:04;;;;;;;7.57;1.00;;;;;;;-147.98;100.00;69253.78;5007256;28;20518;-88
2023/10/15 03:34:35;;;;;;;3.80;0.90;;;;;;;-147.98;100.00;69253.78;5002224;28;20446;-89
2023/10/15 03:37:05;;;;;;;4.10;0.80;;;;;;;-147.98;100.00;69253.78;4989419;28;20492;-88
2023/10/15 03:39:54;;;;;;;6.38;0.90;;;;;;;-147.98;100.00;69253.78;5009169;28;20424;-88
2023/10/15 03:42:30;;;;;;;3.70;0.80;;;;;;;-147.98;100.00;69253.78;5000092;28;20944;-87
2023/10/15 03:45:00;;;;;;;3.53;0.80;;;;;;;-147.98;100.00;69253.78;4975730;28;20422;-87
2023/10/15 03:47:28;;;;;;;3.75;0.85;;;;;;;-147.98;100.00;69253.78;4998815;28;20431;-88
2023/10/15 03:49:57;;;;;;;2.95;0.60;;;;;;;-147.98;100.00;69253.78;4999921;28;20820;-87
2023/10/15 03:52:27;;;;;;;5.72;0.85;;;;;;;-147.98;100.00;69253.78;5007094;28;20412;-87
2023/10/15 03:54:55;;;;;;;4.10;0.80;;;;;;;-147.98;100.00;69253.78;5004798;28;20937;-87
2023/10/15 03:57:27;;;;;;;2.78;0.75;;;;;;;-147.98;100.00;69253.78;4997611;28;20417;-87
2023/10/15 03:59:56;;;;;;;2.50;0.70;;;;;;;-147.98;100.00;69253.78;4989853;28;20789;-88
2023/10/15 04:02:26;;;;;;;1.45;0.60;;;;;;;-147.98;100.00;69253.78;5004180;28;20421;-88
2023/10/15 04:07:47;;;;;;;5.55;0.80;;;;;;;-147.98;100.00;69253.78;4997816;28;20437;-89
2023/10/15 04:10:22;;;;;;;4.30;0.90;;;;;;;-147.98;100.00;69253.78;4994038;28;20428;-87
2023/10/15 04:12:53;;;;;;;3.78;0.70;;;;;;;-147.98;100.00;69253.78;4998640;28;20429;-90
2023/10/15 04:15:22;;;;;;;4.60;0.80;;;;;;;-147.98;100.00;69253.78;4990067;28;20786;-87
2023/10/15 04:17:51;;;;;;;2.60;0.85;;;;;;;-147.98;100.00;69253.78;4987475;28;20433;-86
2023/10/15 04:20:26;;;;;;;2.40;0.60;;;;;;;-147.98;100.00;69253.78;5010452;28;20418;-89
2023/10/15 04:22:55;;;;;;;4.97;0.90;;;;;;;-147.98;100.00;69253.78;5010061;28;20406;-88
2023/10/15 04:25:26;;;;;;;3.13;0.70;;;;;;;-147.98;100.00;69253.78;5005039;28;20464;-89
2023/10/15 04:27:56;;;;;;;5.63;0.77;;;;;;;-147.98;100.00;69253.78;5005773;28;21286;-88
2023/10/15 04:30:25;;;;;;;3.85;0.75;;;;;;;-147.98;100.00;69253.78;4982058;28;20901;-88
2023/10/15 04:32:56;;;;;;;4.63;0.70;;;;;;;-147.98;100.00;69253.78;5003075;28;20888;-87
2023/10/15 04:35:29;;;;;;;4.90;0.95;;;;;;;-147.98;100.00;69253.78;5005059;28;20915;-88
2023/10/15 04:37:59;;;;;;;1.90;0.60;;;;;;;-147.98;100.00;69253.78;4985863;28;20436;-88
2023/10/15 04:40:29;;;;;;;3.67;0.90;;;;;;;-147.98;100.00;69253.78;4984067;28;22030;-89
2023/10/15 04:43:00;;;;;;;3.20;0.75;;;;;;;-147.98;100.00;69253.78;4993062;28;21005;-89
2023/10/15 04:45:39;;;;;;;4.00;1.10;;;;;;;-147.98;100.00;69253.78;5002953;28;20428;-87
2023/10/15 04:48:13;;;;;;;5.15;1.20;;;;;;;-147.98;100.00;69253.78;5004736;28;20906;-89
2023/10/15 04:50:43;;;;;;;3.47;1.10;;;;;;;-147.98;100.00;69253.78;5001380;28;20424;-90
2023/10/15 04:53:23;;;;;;;2.63;0.90;;;;;;;-147.98;100.00;69253.78;5004801;28;20417;-87
2023/10/15 04:55:54;;;;;;;4.53;1.13;;;;;;;-147.98;100.00;69253.78;5000600;28;20913;-90
2023/10/15 04:58:27;;;;;;;4.73;1.00;;;;;;;-147.98;100.00;69253.78;5006429;28;20482;-89
2023/10/15 05:00:56;;;;;;;5.10;1.10;;;;;;;-147.98;100.00;69253.78;5003810;28;20422;-87
2023/10/15 05:03:25;;;;;;;4.00;1.10;;;;;;;-147.98;100.00;69253.78;5004791;28;20436;-89
2023/10/15 05:05:55;;;;;;;2.97;0.88;;;;;;;-147.98;100.00;69253.78;4995897;28;20799;-91
2023/10/15 05:08:24;;;;;;;4.57;0.80;;;;;;;-147.98;100.00;69253.78;5001708;28;20434;-88
2023/10/15 05:10:53;;;;;;;6.22;0.90;;;;;;;-147.98;100.00;69253.78;5007282;28;20500;-89
2023/10/15 05:13:21;;;;;;;4.75;0.85;;;;;;;-147.98;100.00;69253.78;5005320;28;20418;-89
2023/10/15 05:15:51;;;;;;;3.88;1.00;;;;;;;-147.98;100.00;69253.78;4991706;28;20443;-88
2023/10/15 05:18:20;;;;;;;4.57;0.85;;;;;;;-147.98;100.00;69253.78;4998145;28;20420;-88
2023/10/15 05:20:50;;;;;;;2.88;0.80;;;;;;;-147.98;100.00;69253.78;4991307;28;20432;-87
2023/10/15 05:23:19;;;;;;;3.42;0.70;;;;;;;-147.98;100.00;69253.78;5014219;28;20424;-91
2023/10/15 05:25:49;;;;;;;3.25;0.70;;;;;;;-147.98;100.00;69253.78;5003133;28;20431;-88
2023/10/15 05:28:17;;;;;;;5.13;0.80;;;;;;;-147.98;100.00;69253.78;5011005;28;20428;-87
2023/10/15 05:30:46;;;;;;;3.37;0.90;;;;;;;-147.98;100.00;69253.78;5008819;28;20434;-89
2023/10/15 05:33:16;;;;;;;4.22;0.98;;;;;;;-147.98;100.00;69253.78;4995604;28;20416;-90
2023/10/15 05:35:47;;;;;;;5.00;0.90;;;;;;;-147.98;100.00;69253.78;5008335;28;20920;-88
2023/10/15 05:38:16;;;;;;;4.53;0.80;;;;;;;-147.98;100.00;69253.78;4995271;28;20811;-88
2023/10/15 05:40:45;;;;;;;3.67;0.82;;;;;;;-147.98;100.00;69253.78;5008973;28;20417;-86
2023/10/15 05:43:14;;;;;;;5.30;0.90;;;;;;;-147.98;100.00;69253.78;5009891;28;20422;-88
2023/10/15 05:45:46;;;;;;;4.60;0.95;;;;;;;-147.98;100.00;69253.78;4994211;28;20409;-88
2023/10/15 05:48:17;;;;;;;3.97;0.85;;;;;;;-147.98;100.00;69253.78;4985608;28;20413;-87
2023/10/15 05:50:49;;;;;;;5.55;1.10;;;;;;;-147.98;100.00;69253.78;5002213;28;20439;-91
2023/10/15 05:53:20;;;;;;;4.90;1.00;;;;;;;-147.98;100.00;69253.78;5011343;28;20422;-91
2023/10/15 05:55:50;;;;;;;3.38;0.63;;;;;;;-147.98;100.00;69253.78;5011696;28;20421;-90
2023/10/15 05:58:19;;;;;;;3.25;0.60;;;;;;;-147.98;100.00;69253.78;4994362;28;20796;-88
2023/10/15 06:00:47;;;;;;;1.60;0.57;;;;;;;-147.98;100.00;69253.78;4997138;28;20437;-86
2023/10/15 06:03:17;;;;;;;1.87;0.60;;;;;;;-147.98;100.00;69253.78;4994785;28;20425;-88
2023/10/15 06:05:45;;;;;;;3.27;0.80;;;;;;;-147.98;100.00;69253.78;4990457;28;20823;-88
2023/10/15 06:08:14;;;;;;;2.60;0.70;;;;;;;-147.98;100.00;69253.78;5022355;28;20423;-86
2023/10/15 06:10:42;;;;;;;3.30;0.70;;;;;;;-147.98;100.00;69253.78;5005122;28;20429;-89
2023/10/15 06:13:11;;;;;;;2.47;0.70;;;;;;;-147.98;100.00;69253.78;5011385;28;20516;-88
2023/10/15 06:15:39;;;;;;;2.83;0.80;;;;;;;-147.98;100.00;69253.78;4991585;28;20434;-89
2023/10/15 06:18:09;;;;;;;2.53;0.70;;;;;;;-147.98;100.00;69253.78;5004600;28;20420;-87
2023/10/15 06:20:39;;;;;;;4.72;0.90;;;;;;;-147.98;100.00;69253.78;4991005;28;20415;-88
2023/10/15 06:23:08;;;;;;;1.73;0.68;;;;;;;-147.98;100.00;69253.78;5007168;28;20444;-89
2023/10/15 06:25:38;;;;;;;6.97;0.85;;;;;;;-147.98;100.00;69253.78;4998606;28;20423;-88
2023/10/15 06:28:07;;;;;;;5.82;1.05;;;;;;;-147.98;100.00;69253.78;5010929;28;20514;-87
2023/10/15 06:30:36;;;;;;;4.20;0.90;;;;;;;-147.98;100.00;69253.78;4995277;28;20911;-88
2023/10/15 06:33:04;;;;;;;7.93;1.17;;;;;;;-147.98;100.00;69253.78;5005636;28;20422;-87
2023/10/15 06:35:33;;;;;;;3.17;0.50;;;;;;;-147.98;100.00;69253.78;5002315;28;20935;-89
2023/10/15 06:38:03;;;;;;;3.33;0.60;;;;;;;-147.98;100.00;69253.78;4985483;28;20523;-86
2023/10/15 06:40:31;;;;;;;4.22;0.80;;;;;;;-147.98;100.00;69253.78;5004111;28;20923;-89
2023/10/15 06:43:01;;;;;;;5.45;1.00;;;;;;;-147.98;100.00;69253.78;5003025;28;20434;-88
2023/10/15 06:45:31;;;;;;;5.45;0.98;;;;;;;-147.98;100.00;69253.78;4991086;28;20425;-87
2023/10/15 06:48:00;;;;;;;4.95;0.95;;;;;;;-147.98;100.00;69253.78;4995691;28;20768;-87
2023/10/15 06:50:28;;;;;;;4.28;0.77;;;;;;;-147.98;100.00;69253.78;5001798;28;20805;-89
2023/10/15 06:53:01;;;;;;;3.77;0.90;;;;;;;-147.98;100.00;69253.78;4989794;28;20501;-88
2023/10/15 06:55:31;;;;;;;4.65;1.00;;;;;;;-147.98;100.00;69253.78;4990219;28;20420;-88
2023/10/15 06:57:59;;;;;;;5.33;0.93;;;;;;;-147.98;100.00;69253.78;4986962;28;21450;-88
2023/10/15 07:00:31;;;;;;;3.55;0.77;;;;;;;-147.98;100.00;69253.78;5003858;28;20448;-87
2023/10/15 07:02:59;;;;;;;4.15;0.93;;;;;;;-147.98;100.00;69253.78;4992152;28;21348;-90
2023/10/15 07:05:28;;;;;;;6.30;1.00;;;;;;;-147.98;100.00;69253.78;4997848;28;20488;-88
2023/10/15 07:07:57;;;;;;;3.58;0.80;;;;;;;-147.98;100.00;69253.78;4993349;28;20423;-87
2023/10/15 07:10:26;;;;;;;4.20;0.98;;;;;;;-147.98;100.00;69253.78;4989661;28;20708;-87
2023/10/15 07:12:56;;;;;;;3.90;0.90;;;;;;;-147.98;100.00;69253.78;4990583;28;20430;-89
2023/10/15 07:15:25;;;;;;;2.00;0.82;;;;;;;-147.98;100.00;69253.78;4994118;28;20424;-88
2023/10/15 07:17:54;;;;;;;2.33;0.73;;;;;;;-147.98;100.00;69253.78;4993734;28;20418;-89
2023/10/15 07:20:24;;;;;;;3.40;1.05;;;;;;;-147.98;100.00;69253.78;5013966;28;20428;-86
2023/10/15 07:22:56;;;;;;;3.50;0.83;;;;;;;-147.98;100.00;69253.78;5011338;28;20800;-90
2023/10/15 07:25:25;;;;;;;3.00;1.00;;;;;;;-147.98;100.00;69253.78;4997921;28;20416;-89
2023/10/15 07:28:04;;;;;;;3.60;1.10;;;;;;;-147.98;100.00;69253.78;4999510;28;20433;-91
2023/10/15 07:30:36;;;;;;;4.93;1.00;;;;;;;-147.98;100.00;69253.78;5010483;28;20432;-89
2023/10/15 07:33:05;;;;;;;4.40;0.90;;;;;;;-147.98;100.00;69253.78;4986749;28;20424;-87
2023/10/15 07:35:35;;;;;;;7.93;1.50;;;;;;;-147.98;100.00;69253.78;5012375;28;20416;-91
2023/10/15 07:38:07;;;;;;;4.95;1.15;;;;;;;-147.98;100.00;69253.78;5006337;28;20424;-89
2023/10/15 07:40:37;;;;;;;4.50;1.08;;;;;;;-147.98;100.00;69253.78;4994278;28;20771;-90
2023/10/15 07:43:08;;;;;;;5.97;1.38;;;;;;;-147.98;100.00;69253.78;5013088;28;20421;-90
2023/10/15 07:45:37;;;;;;;4.67;1.30;;;;;;;-147.98;100.00;69253.78;5002916;28;20430;-88
2023/10/15 07:48:07;;;;;;;6.05;1.20;;;;;;;-147.98;100.00;69253.78;4994152;28;20416;-91
2023/10/15 07:50:36;;;;;;;6.85;1.50;;;;;;;-147.98;100.00;69253.78;5007913;28;20444;-87
2023/10/15 07:53:07;;;;;;;2.95;0.90;;;;;;;-147.98;100.00;69253.78;4994496;28;20422;-89
2023/10/15 07:55:36;;;;;;;2.60;0.93;;;;;;;-147.98;100.00;69253.78;5004037;28;20417;-85
2023/10/15 07:58:15;;;;;;;5.53;0.90;;;;;;;-147.98;100.00;69253.78;4988910;28;20436;-91
2023/10/15 08:00:45;;;;;;;3.15;0.90;;;;;;;-147.98;100.00;69253.78;4986241;28;20441;-89
2023/10/15 08:03:20;;;;;;;4.67;1.10;;;;;;;-147.98;100.00;69253.78;4980818;28;20441;-87
2023/10/15 08:05:49;;;;;;;4.30;1.00;;;;;;;-147.98;100.00;69253.78;4983743;28;20433;-86
2023/10/15 08:08:17;;;;;;;2.90;1.08;;;;;;;-147.98;100.00;69253.78;4990273;28;20428;-90
2023/10/15 08:10:45;;;;;;;4.83;1.23;;;;;;;-147.98;100.00;69253.78;4991497;28;20428;-87
2023/10/15 08:13:17;;;;;;;3.78;1.50;;;;;;;-147.98;100.00;69253.78;5002673;28;20421;-86
2023/10/15 08:15:46;;;;;;;5.40;1.50;;;;;;;-147.98;100.00;69253.78;4985695;28;20442;-88
2023/10/15 08:18:15;;;;;;;4.60;1.20;;;;;;;-147.98;100.00;69253.78;4992889;28;20416;-86
2023/10/15 08:20:43;;;;;;;3.20;1.25;;;;;;;-147.98;100.00;69253.78;4988173;28;20682;-86
2023/10/15 08:23:17;;;;;;;7.07;1.50;;;;;;;-147.98;100.00;69253.78;5001586;28;20424;-91
2023/10/15 08:28:38;;;;;;;4.30;1.30;;;;;;;-147.98;100.00;69253.78;5028096;28;21222;-87
2023/10/15 08:31:12;;;;;;;5.40;1.25;;;;;;;-147.98;100.00;69253.78;5010518;28;20427;-86
2023/10/15 08:33:45;;;;;;;4.03;1.10;;;;;;;-147.98;100.00;69253.78;5027085;28;20436;-87
2023/10/15 08:36:19;;;;;;;5.53;1.50;;;;;;;-147.98;100.00;69253.78;5028060;28;20523;-84
2023/10/15 08:38:49;;;;;;;6.50;1.27;;;;;;;-147.98;100.00;69253.78;5008661;28;20450;-83
2023/10/15 08:41:39;;;;;;;3.22;1.17;;;;;;;-147.98;100.00;69253.78;5007901;28;20428;-86
2023/10/15 08:44:18;;;;;;;4.63;1.20;;;;;;;-147.98;100.00;69253.78;5006558;28;20903;-84
2023/10/15 08:46:53;;;;;;;5.10;1.63;;;;;;;-147.98;100.00;69253.78;5028318;28;20434;-85
2023/10/15 08:49:25;;;;;;;4.93;1.35;;;;;;;-147.98;100.00;69253.78;5008173;28;20439;-85
2023/10/15 08:52:00;;;;;;;5.35;1.42;;;;;;;-147.98;100.00;69253.78;5006829;28;20450;-85
2023/10/15 08:54:29;;;;;;;6.82;1.60;;;;;;;-147.98;100.00;69253.78;5002768;28;20774;-85
2023/10/15 08:57:02;;;;;;;4.30;1.30;;;;;;;-147.98;100.00;69253.78;5008076;28;20430;-85
2023/10/15 08:59:32;;;;;;;4.63;1.70;;;;;;;-147.98;100.00;69253.78;5003909;28;20430;-80
2023/10/15 09:02:06;;;;;;;5.63;1.48;;;;;;;-147.98;100.00;69253.78;5006910;28;20429;-84
2023/10/15 09:04:39;;;;;;;4.22;1.40;;;;;;;-147.98;100.00;69253.78;5011397;28;20462;-83
2023/10/15 09:07:10;;;;;;;5.30;1.50;;;;;;;-147.98;100.00;69253.78;5011209;28;20417;-87
2023/10/15 09:09:44;;;;;;;4.78;1.42;;;;;;;-147.98;100.00;69253.78;4994773;28;20439;-83
2023/10/15 09:12:18;;;;;;;5.78;1.10;;;;;;;-147.98;100.00;69253.78;5011202;28;20444;-84
2023/10/15 09:14:54;;;;;;;2.90;1.00;;;;;;;-147.98;100.00;69253.78;4996644;28;20433;-89
2023/10/15 09:17:24;;;;;;;5.13;1.20;;;;;;;-147.98;100.00;69253.78;5009095;28;20445;-85
2023/10/15 09:19:52;;;;;;;5.25;1.05;;;;;;;-147.98;100.00;69253.78;4996870;28;20432;-85
2023/10/15 09:22:21;;;;;;;5.90;1.55;;;;;;;-147.98;100.00;69253.78;5001025;28;20437;-86
2023/10/15 09:24:49;;;;;;;3.97;1.13;;;;;;;-147.98;100.00;69253.78;4993840;28;20434;-87
2023/10/15 09:27:17;;;;;;;3.95;1.00;;;;;;;-147.98;100.00;69253.78;4997871;28;20426;-83
2023/10/15 09:30:10;;;;;;;3.47;0.80;;;;;;;-147.98;100.00;69253.78;4992910;28;20437;-90
2023/10/15 09:32:40;;;;;;;5.03;1.13;;;;;;;-147.98;100.00;69253.78;4995447;28;20457;-84
2023/10/15 09:35:14;;;;;;;3.10;0.90;;;;;;;-147.98;100.00;69253.78;5006681;28;20428;-88
2023/10/15 09:37:47;;;;;;;3.13;0.88;;;;;;;-147.98;100.00;69253.78;4991438;28;20429;-86
2023/10/15 09:40:20;;;;;;;2.70;0.82;;;;;;;-147.98;100.00;69253.78;5006154;28;20425;-82
2023/10/15 09:42:54;;;;;;;4.47;0.85;;;;;;;-147.98;100.00;69253.78;5000143;28;20419;-85
2023/10/15 09:45:23;;;;;;;2.47;0.80;;;;;;;-147.98;100.00;69253.78;4991609;28;21015;-85
2023/10/15 09:47:57;;;;;;;2.00;0.70;;;;;;;-147.98;100.00;69253.78;4996135;28;20412;-87
2023/10/15 09:50:31;;;;;;;2.20;0.80;;;;;;;-147.98;100.00;69253.78;4991259;28;20432;-88
2023/10/15 09:53:08;;;;;;;3.83;0.80;;;;;;;-147.98;100.00;69253.78;4992512;28;20427;-86
2023/10/15 09:55:40;;;;;;;2.90;0.60;;;;;;;-147.98;100.00;69253.78;5004276;28;20418;-87
2023/10/15 09:58:15;;;;;;;2.97;0.70;;;;;;;-147.98;100.00;69253.78;4996926;28;20425;-87
2023/10/15 10:00:59;;;;;;;3.42;0.80;;;;;;;-147.98;100.00;69253.78;4993020;28;20433;-83
2023/10/15 10:03:59;;;;;;;2.55;0.90;;;;;;;-147.98;100.00;69253.78;5000754;28;20446;-81
2023/10/15 10:06:41;;;;;;;2.53;0.80;;;;;;;-147.98;100.00;69253.78;4992740;28;20422;-82
2023/10/15 10:09:36;;;;;;;4.15;0.70;;;;;;;-147.98;100.00;69253.78;4988804;28;20437;-82
2023/10/15 10:12:25;;;;;;;4.30;0.90;;;;;;;-147.98;100.00;69253.78;5012808;28;20428;-83
2023/10/15 10:15:17;;;;;;;3.92;1.10;;;;;;;-147.98;100.00;69253.78;4989132;28;20425;-82
2023/10/15 10:17:51;;;;;;;3.05;0.80;;;;;;;-147.98;100.00;69253.78;4990532;28;20426;-81
2023/10/15 10:20:30;;;;;;;3.03;0.95;;;;;;;-147.98;100.00;69253.78;5009381;28;20426;-83
2023/10/15 10:23:06;;;;;;;3.90;0.90;;;;;;;-147.98;100.00;69253.78;4988206;28;20432;-83
2023/10/15 10:25:40;;;;;;;3.50;1.08;;;;;;;-147.98;100.00;69253.78;5009358;28;20470;-84
2023/10/15 10:28:15;;;;;;;5.27;1.00;;;;;;;-147.98;100.00;69253.78;4995063;28;20513;-82
2023/10/15 10:30:54;;;;;;;4.20;0.90;;;;;;;-147.98;100.00;69253.78;5011418;28;20425;-83
2023/10/15 10:33:50;;;;;;;4.43;0.90;;;;;;;-147.98;100.00;69253.78;5007912;28;20433;-81
2023/10/15 10:36:27;;;;;;;4.15;1.10;;;;;;;-147.98;100.00;69253.78;5009459;28;20421;-84
2023/10/15 10:39:11;;;;;;;5.78;1.10;;;;;;;-147.98;100.00;69253.78;5002297;28;20435;-84
2023/10/15 10:41:41;;;;;;;3.83;1.08;;;;;;;-147.98;100.00;69253.78;5009983;28;20413;-82
2023/10/15 10:44:38;;;;;;;5.57;1.00;;;;;;;-147.98;100.00;69253.78;4995323;28;20421;-81
2023/10/15 10:47:20;;;;;;;3.43;1.00;;;;;;;-147.98;100.00;69253.78;5007114;28;20502;-80
2023/10/15 10:49:56;;;;;;;3.60;0.90;;;;;;;-147.98;100.00;69253.78;4947181;28;20423;-81
2023/10/15 10:52:34;;;;;;;5.25;1.05;;;;;;;-147.98;100.00;69253.78;4999028;28;20765;-80
2023/10/15 10:55:33;;;;;;;4.13;1.08;;;;;;;-147.98;100.00;69253.78;4980563;28;20839;-82
2023/10/15 10:58:09;;;;;;;4.70;1.05;;;;;;;-147.98;100.00;69253.78;4985034;28;20432;-83
2023/10/15 11:00:42;;;;;;;3.75;1.10;;;;;;;-147.98;100.00;69253.78;4973289;28;21867;-83
2023/10/15 11:03:10;;;;;;;3.13;0.87;;;;;;;-147.98;100.00;69253.78;4982383;28;20517;-86
2023/10/15 11:05:46;;;;;;;4.70;1.17;;;;;;;-147.98;100.00;69253.78;4971977;28;20423;-85
2023/10/15 11:08:21;;;;;;;2.42;1.00;;;;;;;-147.98;100.00;69253.78;4985186;28;20426;-86
2023/10/15 11:10:59;;;;;;;3.65;1.02;;;;;;;-147.98;100.00;69253.78;4985154;28;20467;-85
2023/10/15 11:13:28;;;;;;;5.45;1.20;;;;;;;-147.98;100.00;69253.78;4990471;28;20444;-84
2023/10/15 11:15:57;;;;;;;4.10;1.20;;;;;;;-147.98;100.00;69253.78;4982540;28;20430;-86
2023/10/15 11:18:26;;;;;;;4.13;1.17;;;;;;;-147.98;100.00;69253.78;4981576;28;20420;-83
2023/10/15 11:20:55;;;;;;;3.93;1.20;;;;;;;-147.98;100.00;69253.78;4985332;28;20426;-83
2023/10/15 11:23:26;;;;;;;5.53;1.00;;;;;;;-147.98;100.00;69253.78;4980144;28;20431;-86
2023/10/15 11:25:55;;;;;;;3.43;1.10;;;;;;;-147.98;100.00;69253.78;4984196;28;20556;-83
2023/10/15 11:28:24;;;;;;;5.35;1.50;;;;;;;-147.98;100.00;69253.78;4962029;28;20439;-83
2023/10/15 11:30:53;;;;;;;7.13;1.20;;;;;;;-147.98;100.00;69253.78;4962680;28;20439;-81
2023/10/15 11:33:28;;;;;;;5.53;1.00;;;;;;;-147.98;100.00;69253.78;4964176;28;20436;-85
2023/10/15 11:36:06;;;;;;;6.43;1.15;;;;;;;-147.98;100.00;69253.78;4966934;28;21257;-86
2023/10/15 11:38:37;;;;;;;4.22;0.93;;;;;;;-147.98;100.00;69253.78;4979975;28;20444;-82